createdAt,value
2022-08-28T00:00:42.071Z,89.00
2022-08-28T00:03:10.701Z,89.20
2022-08-28T00:05:39.699Z,90.00
2022-08-28T00:08:07.397Z,89.50
2022-08-28T00:10:34.713Z,89.50
2022-08-28T00:13:02.430Z,89.60
2022-08-28T00:15:34.705Z,89.70
2022-08-28T00:18:03.645Z,89.90
2022-08-28T00:20:32.459Z,89.80
2022-08-28T00:23:00.429Z,89.60
2022-08-28T00:25:30.371Z,89.40
2022-08-28T00:28:05.241Z,89.40
2022-08-28T00:30:42.176Z,89.40
2022-08-28T00:33:13.787Z,89.40
2022-08-28T00:35:42.856Z,89.50
2022-08-28T00:38:11.673Z,89.60
2022-08-28T00:40:40.953Z,89.70
2022-08-28T00:43:09.553Z,89.90
2022-08-28T00:45:39.800Z,90.10
2022-08-28T00:48:07.622Z,90.20
2022-08-28T00:50:56.817Z,90.30
2022-08-28T00:53:32.711Z,90.30
2022-08-28T00:56:04.200Z,90.40
2022-08-28T00:58:42.821Z,90.40
2022-08-28T01:01:09.921Z,90.50
2022-08-28T01:03:37.779Z,90.50
2022-08-28T01:06:06.783Z,90.50
2022-08-28T01:08:37.169Z,90.50
2022-08-28T01:11:05.923Z,90.50
2022-08-28T01:13:34.279Z,90.50
2022-08-28T01:16:01.641Z,90.50
2022-08-28T01:18:30.563Z,90.50
2022-08-28T01:21:20.556Z,90.50
2022-08-28T01:23:56.926Z,90.60
2022-08-28T01:26:25.338Z,90.60
2022-08-28T01:28:52.496Z,90.60
2022-08-28T01:31:20.630Z,90.70
2022-08-28T01:33:48.805Z,90.70
2022-08-28T01:36:16.153Z,90.70
2022-08-28T01:38:46.236Z,90.70
2022-08-28T01:41:14.099Z,90.60
2022-08-28T01:43:42.996Z,90.60
2022-08-28T01:46:12.292Z,90.60
2022-08-28T01:48:43.408Z,90.90
2022-08-28T01:51:11.848Z,90.60
2022-08-28T01:53:39.931Z,90.60
2022-08-28T01:56:10.581Z,90.60
2022-08-28T01:58:38.922Z,90.50
2022-08-28T02:01:15.080Z,90.50
2022-08-28T02:03:45.419Z,90.40
2022-08-28T02:06:13.969Z,90.40
2022-08-28T02:08:41.267Z,90.50
2022-08-28T02:11:09.296Z,90.50
2022-08-28T02:13:37.461Z,90.60
2022-08-28T02:16:06.855Z,90.60
2022-08-28T02:18:33.973Z,90.70
2022-08-28T02:21:01.338Z,90.70
2022-08-28T02:23:28.573Z,90.70
2022-08-28T02:25:55.567Z,90.70
2022-08-28T02:28:22.587Z,90.70
2022-08-28T02:30:49.661Z,90.60
2022-08-28T02:33:16.756Z,90.50
2022-08-28T02:35:44.045Z,90.40
2022-08-28T02:38:11.616Z,90.50
2022-08-28T02:40:40.214Z,90.70
2022-08-28T02:43:07.416Z,90.70
2022-08-28T02:45:34.566Z,90.70
2022-08-28T02:48:02.101Z,90.50
2022-08-28T02:50:31.488Z,90.40
2022-08-28T02:52:58.723Z,90.40
2022-08-28T02:55:25.923Z,90.50
2022-08-28T02:57:54.659Z,90.60
2022-08-28T03:00:25.970Z,90.70
2022-08-28T03:02:53.975Z,90.90
2022-08-28T03:05:24.161Z,91.00
2022-08-28T03:07:53.375Z,91.10
2022-08-28T03:10:20.961Z,91.00
2022-08-28T03:12:48.269Z,91.00
2022-08-28T03:15:15.306Z,91.00
2022-08-28T03:17:42.336Z,91.10
2022-08-28T03:20:11.925Z,91.20
2022-08-28T03:22:58.029Z,91.30
2022-08-28T03:25:25.510Z,91.30
2022-08-28T03:27:52.892Z,91.20
2022-08-28T03:30:21.416Z,91.10
2022-08-28T03:32:49.036Z,90.70
2022-08-28T03:35:17.002Z,90.70
2022-08-28T03:37:44.454Z,90.90
2022-08-28T03:40:12.215Z,91.10
2022-08-28T03:42:39.331Z,91.20
2022-08-28T03:45:10.499Z,91.30
2022-08-28T03:47:39.391Z,91.40
2022-08-28T03:50:08.723Z,91.40
2022-08-28T03:52:39.765Z,91.40
2022-08-28T03:55:09.359Z,91.50
2022-08-28T03:57:36.845Z,91.50
2022-08-28T04:00:07.638Z,91.50
2022-08-28T04:02:42.283Z,91.60
2022-08-28T04:05:11.134Z,91.60
2022-08-28T04:07:39.464Z,91.40
2022-08-28T04:10:07.886Z,91.40
2022-08-28T04:12:36.091Z,91.40
2022-08-28T04:15:05.099Z,91.30
2022-08-28T04:17:34.007Z,91.20
2022-08-28T04:20:01.005Z,91.10
2022-08-28T04:22:30.104Z,91.10
2022-08-28T04:24:57.144Z,91.10
2022-08-28T04:27:24.113Z,91.20
2022-08-28T04:29:51.084Z,91.20
2022-08-28T04:32:18.185Z,91.30
2022-08-28T04:34:45.183Z,91.30
2022-08-28T04:37:12.415Z,91.40
2022-08-28T04:39:39.456Z,91.40
2022-08-28T04:42:06.613Z,91.50
2022-08-28T04:44:33.646Z,91.50
2022-08-28T04:47:00.698Z,91.40
2022-08-28T04:49:28.967Z,91.40
2022-08-28T04:51:56.220Z,91.50
2022-08-28T04:54:23.297Z,91.60
2022-08-28T04:56:50.339Z,91.60
2022-08-28T04:59:17.484Z,91.70
2022-08-28T05:01:44.619Z,91.60
2022-08-28T05:04:12.836Z,91.60
2022-08-28T05:06:46.323Z,91.50
2022-08-28T05:09:16.474Z,91.50
2022-08-28T05:11:44.315Z,91.50
2022-08-28T05:14:15.942Z,91.60
2022-08-28T05:16:47.703Z,91.70
2022-08-28T05:19:16.767Z,91.80
2022-08-28T05:21:44.268Z,91.80
2022-08-28T05:24:11.628Z,91.80
2022-08-28T05:26:40.055Z,91.80
2022-08-28T05:29:07.749Z,91.90
2022-08-28T05:31:35.619Z,91.90
2022-08-28T05:34:04.502Z,91.90
2022-08-28T05:36:36.423Z,91.80
2022-08-28T05:39:06.419Z,91.70
2022-08-28T05:41:33.969Z,91.60
2022-08-28T05:44:04.064Z,91.60
2022-08-28T05:46:31.831Z,91.50
2022-08-28T05:49:00.556Z,91.40
2022-08-28T05:51:28.466Z,91.30
2022-08-28T05:53:57.604Z,91.20
2022-08-28T05:56:29.970Z,91.10
2022-08-28T05:58:59.683Z,91.00
2022-08-28T06:01:29.389Z,90.90
2022-08-28T06:03:59.945Z,90.80
2022-08-28T06:06:29.594Z,90.60
2022-08-28T06:09:03.122Z,90.40
2022-08-28T06:11:31.311Z,90.10
2022-08-28T06:14:02.454Z,89.60
2022-08-28T06:16:31.747Z,89.20
2022-08-28T06:19:00.558Z,88.60
2022-08-28T06:21:28.985Z,87.80
2022-08-28T06:23:56.631Z,87.20
2022-08-28T06:26:23.934Z,86.80
2022-08-28T06:28:53.625Z,86.20
2022-08-28T06:31:24.589Z,85.60
2022-08-28T06:33:54.447Z,85.10
2022-08-28T06:36:22.142Z,84.70
2022-08-28T06:38:49.325Z,84.20
2022-08-28T06:41:16.742Z,83.90
2022-08-28T06:43:43.821Z,83.30
2022-08-28T06:46:10.868Z,83.00
2022-08-28T06:48:38.223Z,82.60
2022-08-28T06:51:11.140Z,82.40
2022-08-28T06:53:39.982Z,81.90
2022-08-28T06:56:11.284Z,81.40
2022-08-28T06:58:43.311Z,80.60
2022-08-28T07:01:26.984Z,80.60
2022-08-28T07:03:56.326Z,80.40
2022-08-28T07:06:24.289Z,80.10
2022-08-28T07:08:51.692Z,79.60
2022-08-28T07:11:26.313Z,79.40
2022-08-28T07:13:54.769Z,79.00
2022-08-28T07:16:24.980Z,78.50
2022-08-28T07:18:52.421Z,78.10
2022-08-28T07:21:20.516Z,77.80
2022-08-28T07:23:48.462Z,77.30
2022-08-28T07:26:22.572Z,75.90
2022-08-28T07:28:50.615Z,75.10
2022-08-28T07:31:20.912Z,74.90
2022-08-28T07:33:50.804Z,74.40
2022-08-28T07:36:29.678Z,73.70
2022-08-28T07:38:59.743Z,72.50
2022-08-28T07:41:31.992Z,72.70
2022-08-28T07:44:17.928Z,73.30
2022-08-28T07:46:45.723Z,73.00
2022-08-28T07:49:17.117Z,72.10
2022-08-28T07:51:45.727Z,71.70
2022-08-28T07:54:17.842Z,70.40
2022-08-28T07:56:46.663Z,70.70
2022-08-28T07:59:17.003Z,71.00
2022-08-28T08:01:46.674Z,71.00
2022-08-28T08:04:16.092Z,70.40
2022-08-28T08:06:44.108Z,69.20
2022-08-28T08:09:13.873Z,68.70
2022-08-28T08:11:41.057Z,69.00
2022-08-28T08:14:08.508Z,69.10
2022-08-28T08:16:38.915Z,68.90
2022-08-28T08:19:09.746Z,68.80
2022-08-28T08:21:37.403Z,67.60
2022-08-28T08:24:05.037Z,66.40
2022-08-28T08:26:33.147Z,65.90
2022-08-28T08:29:00.751Z,65.50
2022-08-28T08:31:32.542Z,65.10
2022-08-28T08:34:02.014Z,64.30
2022-08-28T08:36:30.788Z,64.80
2022-08-28T08:38:59.186Z,64.50
2022-08-28T08:41:48.352Z,63.80
2022-08-28T08:44:33.658Z,62.50
2022-08-28T08:47:10.636Z,62.20
2022-08-28T08:50:00.347Z,62.30
2022-08-28T08:52:48.132Z,62.20
2022-08-28T08:55:25.579Z,62.00
2022-08-28T08:58:06.966Z,60.80
2022-08-28T09:00:39.965Z,60.20
2022-08-28T09:03:15.316Z,59.60
2022-08-28T09:06:03.329Z,60.00
2022-08-28T09:08:32.326Z,60.00
2022-08-28T09:11:14.004Z,59.90
2022-08-28T09:13:56.267Z,59.00
2022-08-28T09:16:39.049Z,58.50
2022-08-28T09:19:09.784Z,58.50
2022-08-28T09:21:41.677Z,57.60
2022-08-28T09:24:35.533Z,57.60
2022-08-28T09:27:05.932Z,57.90
2022-08-28T09:29:39.466Z,57.70
2022-08-28T09:32:31.137Z,58.30
2022-08-28T09:35:23.295Z,57.80
2022-08-28T09:37:50.767Z,56.40
2022-08-28T09:40:52.090Z,55.80
2022-08-28T09:43:27.876Z,55.60
2022-08-28T09:45:59.883Z,55.00
2022-08-28T09:48:33.004Z,55.70
2022-08-28T09:51:05.696Z,55.50
2022-08-28T09:53:35.859Z,55.30
2022-08-28T09:56:17.924Z,54.60
2022-08-28T09:59:10.695Z,54.40
2022-08-28T10:01:50.057Z,54.80
2022-08-28T10:04:51.131Z,54.60
2022-08-28T10:07:37.080Z,52.80
2022-08-28T10:10:30.379Z,53.30
2022-08-28T10:13:04.939Z,54.50
2022-08-28T10:16:08.964Z,54.40
2022-08-28T10:18:58.415Z,54.30
2022-08-28T10:21:43.047Z,54.40
2022-08-28T10:24:33.044Z,53.60
2022-08-28T10:27:21.474Z,52.70
2022-08-28T10:30:12.418Z,51.50
2022-08-28T10:32:42.989Z,53.00
2022-08-28T10:35:14.360Z,54.10
2022-08-28T10:38:08.831Z,54.40
2022-08-28T10:40:56.344Z,53.60
2022-08-28T10:43:34.771Z,53.50
2022-08-28T10:46:05.814Z,53.10
2022-08-28T10:48:42.544Z,53.20
2022-08-28T10:51:44.230Z,53.20
2022-08-28T10:54:23.310Z,52.90
2022-08-28T10:57:09.204Z,53.20
2022-08-28T10:59:41.787Z,53.20
2022-08-28T11:02:14.188Z,52.50
2022-08-28T11:04:41.346Z,52.60
2022-08-28T11:07:12.589Z,51.50
2022-08-28T11:09:46.092Z,51.30
2022-08-28T11:12:16.158Z,52.00
2022-08-28T11:14:48.024Z,52.90
2022-08-28T11:17:33.484Z,52.10
2022-08-28T11:20:06.416Z,52.00
2022-08-28T11:22:55.307Z,51.40
2022-08-28T11:25:52.071Z,51.20
2022-08-28T11:28:43.898Z,50.90
2022-08-28T11:31:11.102Z,50.70
2022-08-28T11:33:49.883Z,51.10
2022-08-28T11:36:19.756Z,51.90
2022-08-28T11:38:55.831Z,51.90
2022-08-28T11:41:28.464Z,51.50
2022-08-28T11:44:13.234Z,51.00
2022-08-28T11:46:43.379Z,50.90
2022-08-28T11:49:32.336Z,50.70
2022-08-28T11:52:06.748Z,51.20
2022-08-28T11:55:02.056Z,50.40
2022-08-28T11:57:49.626Z,50.60
2022-08-28T12:00:38.472Z,51.20
2022-08-28T12:03:24.332Z,50.40
2022-08-28T12:05:56.153Z,50.80
2022-08-28T12:08:45.101Z,50.90
2022-08-28T12:11:41.197Z,51.50
2022-08-28T12:14:26.259Z,52.00
2022-08-28T12:16:59.258Z,52.30
2022-08-28T12:19:55.910Z,52.50
2022-08-28T12:22:49.959Z,52.40
2022-08-28T12:25:33.837Z,51.60
2022-08-28T12:28:08.031Z,52.10
2022-08-28T12:30:58.057Z,51.00
2022-08-28T12:33:34.469Z,51.60
2022-08-28T12:36:04.471Z,49.70
2022-08-28T12:38:33.556Z,49.80
2022-08-28T12:41:02.879Z,50.40
2022-08-28T12:43:40.311Z,50.60
2022-08-28T12:46:26.485Z,50.00
2022-08-28T12:48:59.591Z,50.50
2022-08-28T12:51:34.939Z,50.20
2022-08-28T12:54:08.460Z,50.70
2022-08-28T12:56:38.324Z,50.40
2022-08-28T12:59:27.211Z,50.60
2022-08-28T13:02:01.210Z,49.70
2022-08-28T13:04:33.264Z,49.40
2022-08-28T13:07:07.852Z,49.80
2022-08-28T13:09:35.287Z,51.30
2022-08-28T13:12:02.639Z,50.10
2022-08-28T13:14:43.197Z,50.20
2022-08-28T13:17:12.087Z,50.80
2022-08-28T13:19:39.512Z,50.00
2022-08-28T13:22:28.464Z,49.90
2022-08-28T13:25:00.728Z,48.40
2022-08-28T13:27:28.267Z,49.30
2022-08-28T13:30:01.598Z,49.00
2022-08-28T13:32:32.001Z,49.10
2022-08-28T13:35:06.943Z,49.80
2022-08-28T13:37:54.925Z,49.90
2022-08-28T13:40:55.633Z,50.40
2022-08-28T13:43:12.900Z,50.30
2022-08-28T13:45:44.677Z,50.30
2022-08-28T13:48:14.027Z,50.00
2022-08-28T13:50:47.618Z,50.20
2022-08-28T13:53:18.642Z,49.90
2022-08-28T13:55:48.332Z,49.70
2022-08-28T13:58:16.061Z,49.90
2022-08-28T14:00:48.494Z,50.50
2022-08-28T14:03:34.252Z,49.60
2022-08-28T14:06:11.998Z,49.70
2022-08-28T14:08:43.957Z,50.70
2022-08-28T14:11:12.933Z,50.90
2022-08-28T14:13:47.453Z,50.40
2022-08-28T14:16:24.907Z,51.10
2022-08-28T14:18:52.955Z,52.50
2022-08-28T14:21:20.876Z,53.20
2022-08-28T14:23:47.884Z,52.90
2022-08-28T14:26:14.872Z,53.70
2022-08-28T14:28:42.429Z,54.00
2022-08-28T14:31:14.206Z,53.90
2022-08-28T14:33:45.377Z,54.30
2022-08-28T14:36:22.282Z,54.00
2022-08-28T14:38:53.849Z,53.70
2022-08-28T14:41:22.665Z,54.70
2022-08-28T14:43:50.132Z,55.70
2022-08-28T14:46:23.181Z,54.70
2022-08-28T14:48:50.732Z,54.80
2022-08-28T14:51:18.584Z,55.10
2022-08-28T14:53:45.644Z,55.30
2022-08-28T14:56:12.632Z,55.00
2022-08-28T14:58:39.779Z,54.70
2022-08-28T15:01:07.088Z,55.00
2022-08-28T15:03:34.169Z,55.70
2022-08-28T15:06:09.055Z,56.00
2022-08-28T15:08:37.325Z,55.80
2022-08-28T15:11:09.131Z,55.00
2022-08-28T15:13:36.202Z,55.10
2022-08-28T15:16:11.029Z,55.30
2022-08-28T15:18:45.771Z,55.10
2022-08-28T15:21:28.742Z,55.00
2022-08-28T15:23:57.859Z,55.00
2022-08-28T15:26:26.253Z,54.80
2022-08-28T15:28:55.915Z,54.70
2022-08-28T15:31:24.780Z,55.00
2022-08-28T15:33:52.499Z,54.80
2022-08-28T15:36:20.000Z,54.80
2022-08-28T15:39:05.309Z,54.70
2022-08-28T15:41:32.367Z,54.90
2022-08-28T15:44:01.798Z,54.90
2022-08-28T15:46:33.469Z,55.10
2022-08-28T15:49:07.691Z,55.70
2022-08-28T15:51:35.953Z,55.60
2022-08-28T15:54:03.065Z,56.40
2022-08-28T15:56:30.189Z,56.70
2022-08-28T15:58:57.141Z,56.30
2022-08-28T16:01:24.212Z,55.80
2022-08-28T16:03:51.218Z,55.20
2022-08-28T16:06:21.146Z,54.80
2022-08-28T16:08:49.081Z,53.30
2022-08-28T16:11:18.701Z,51.80
2022-08-28T16:13:46.542Z,51.70
2022-08-28T16:16:13.582Z,51.50
2022-08-28T16:18:41.139Z,51.10
2022-08-28T16:21:08.964Z,50.60
2022-08-28T16:23:36.425Z,50.40
2022-08-28T16:26:05.534Z,50.80
2022-08-28T16:28:33.316Z,50.60
2022-08-28T16:31:04.813Z,50.60
2022-08-28T16:33:35.079Z,50.30
2022-08-28T16:36:11.245Z,50.30
2022-08-28T16:38:39.849Z,49.80
2022-08-28T16:41:21.971Z,49.90
2022-08-28T16:43:49.805Z,49.70
2022-08-28T16:46:20.119Z,50.10
2022-08-28T16:48:47.709Z,50.10
2022-08-28T16:51:15.824Z,50.50
2022-08-28T16:53:43.020Z,50.70
2022-08-28T16:56:11.884Z,51.20
2022-08-28T16:58:40.239Z,51.50
2022-08-28T17:01:09.157Z,51.80
2022-08-28T17:03:38.582Z,52.10
2022-08-28T17:06:16.574Z,52.00
2022-08-28T17:08:44.256Z,52.10
2022-08-28T17:11:12.276Z,52.20
2022-08-28T17:13:39.956Z,52.30
2022-08-28T17:16:08.146Z,52.40
2022-08-28T17:18:36.948Z,52.90
2022-08-28T17:21:23.820Z,53.10
2022-08-28T17:23:51.090Z,53.40
2022-08-28T17:26:18.739Z,53.40
2022-08-28T17:28:46.422Z,53.90
2022-08-28T17:31:14.332Z,54.20
2022-08-28T17:33:43.257Z,54.90
2022-08-28T17:36:21.388Z,55.50
2022-08-28T17:39:01.712Z,55.90
2022-08-28T17:41:28.944Z,56.10
2022-08-28T17:43:55.998Z,56.90
2022-08-28T17:46:23.048Z,57.20
2022-08-28T17:48:55.655Z,57.20
2022-08-28T17:51:42.074Z,57.00
2022-08-28T17:54:21.774Z,57.30
2022-08-28T17:56:49.563Z,57.60
2022-08-28T17:59:16.730Z,58.10
2022-08-28T18:01:45.143Z,58.90
2022-08-28T18:04:13.229Z,59.30
2022-08-28T18:06:40.481Z,59.60
2022-08-28T18:09:09.255Z,59.80
2022-08-28T18:11:37.560Z,60.10
2022-08-28T18:14:04.969Z,60.10
2022-08-28T18:16:33.420Z,60.50
2022-08-28T18:19:01.570Z,61.20
2022-08-28T18:21:29.106Z,61.70
2022-08-28T18:23:56.264Z,61.90
2022-08-28T18:26:23.481Z,62.10
2022-08-28T18:28:51.124Z,62.20
2022-08-28T18:31:18.705Z,62.50
2022-08-28T18:33:45.837Z,62.60
2022-08-28T18:36:14.023Z,62.80
2022-08-28T18:38:42.418Z,63.00
2022-08-28T18:41:10.709Z,63.60
2022-08-28T18:43:37.950Z,63.90
2022-08-28T18:46:06.148Z,63.50
2022-08-28T18:48:33.197Z,63.10
2022-08-28T18:51:00.399Z,62.80
2022-08-28T18:53:29.033Z,62.70
2022-08-28T18:55:56.205Z,62.70
2022-08-28T18:58:27.473Z,62.80
2022-08-28T19:00:54.861Z,62.90
2022-08-28T19:03:22.507Z,63.60
2022-08-28T19:05:51.078Z,63.00
2022-08-28T19:08:18.093Z,62.90
2022-08-28T19:10:45.231Z,63.10
2022-08-28T19:13:12.214Z,63.00
2022-08-28T19:15:39.957Z,63.60
2022-08-28T19:18:07.114Z,64.00
2022-08-28T19:20:34.664Z,64.00
2022-08-28T19:23:01.662Z,63.90
2022-08-28T19:25:30.762Z,63.80
2022-08-28T19:28:02.221Z,63.20
2022-08-28T19:30:33.895Z,63.50
2022-08-28T19:33:03.352Z,63.50
2022-08-28T19:35:30.500Z,63.70
2022-08-28T19:37:57.637Z,63.50
2022-08-28T19:40:24.705Z,63.40
2022-08-28T19:42:51.962Z,63.40
2022-08-28T19:45:20.221Z,63.40
2022-08-28T19:47:47.422Z,63.40
2022-08-28T19:50:15.404Z,63.70
2022-08-28T19:52:43.485Z,64.00
2022-08-28T19:55:17.705Z,64.20
2022-08-28T19:57:46.876Z,64.40
2022-08-28T20:00:16.363Z,64.20
2022-08-28T20:02:44.057Z,64.00
2022-08-28T20:05:11.744Z,63.80
2022-08-28T20:07:39.059Z,64.00
2022-08-28T20:10:07.427Z,64.20
2022-08-28T20:12:34.726Z,64.20
2022-08-28T20:15:03.678Z,64.20
2022-08-28T20:17:31.222Z,64.10
2022-08-28T20:20:02.420Z,63.80
2022-08-28T20:22:32.022Z,63.60
2022-08-28T20:25:00.151Z,63.50
2022-08-28T20:27:28.259Z,63.30
2022-08-28T20:29:55.283Z,63.80
2022-08-28T20:32:22.260Z,63.20
2022-08-28T20:34:49.369Z,63.50
2022-08-28T20:37:16.869Z,64.00
2022-08-28T20:39:43.964Z,64.40
2022-08-28T20:42:11.931Z,64.70
2022-08-28T20:44:38.953Z,65.20
2022-08-28T20:47:06.177Z,65.50
2022-08-28T20:49:33.171Z,65.60
2022-08-28T20:52:06.885Z,65.20
2022-08-28T20:54:38.004Z,64.70
2022-08-28T20:57:10.596Z,64.50
2022-08-28T20:59:40.523Z,64.40
2022-08-28T21:02:18.426Z,65.20
2022-08-28T21:04:46.683Z,65.90
2022-08-28T21:07:15.623Z,66.30
2022-08-28T21:10:05.180Z,66.70
2022-08-28T21:12:30.836Z,67.10
2022-08-28T21:14:58.657Z,66.90
2022-08-28T21:17:30.318Z,67.20
2022-08-28T21:20:04.285Z,67.40
2022-08-28T21:22:32.861Z,67.50
2022-08-28T21:25:00.880Z,67.70
2022-08-28T21:27:27.891Z,68.10
2022-08-28T21:29:58.700Z,68.40
2022-08-28T21:32:27.859Z,68.80
2022-08-28T21:34:55.290Z,69.00
2022-08-28T21:37:23.320Z,69.00
2022-08-28T21:39:50.860Z,69.50
2022-08-28T21:42:18.381Z,70.10
2022-08-28T21:44:52.029Z,70.50
2022-08-28T21:47:22.989Z,70.70
2022-08-28T21:49:51.988Z,70.60
2022-08-28T21:52:21.033Z,71.10
2022-08-28T21:54:48.794Z,71.40
2022-08-28T21:57:17.702Z,71.20
2022-08-28T21:59:44.738Z,71.00
2022-08-28T22:02:11.927Z,70.70
2022-08-28T22:04:38.977Z,70.70
2022-08-28T22:07:06.614Z,70.90
2022-08-28T22:09:33.609Z,71.30
2022-08-28T22:12:01.316Z,71.90
2022-08-28T22:14:28.606Z,72.10
2022-08-28T22:16:56.751Z,72.10
2022-08-28T22:19:23.876Z,72.00
2022-08-28T22:22:09.221Z,72.20
2022-08-28T22:24:37.651Z,72.40
2022-08-28T22:27:05.858Z,72.10
2022-08-28T22:29:36.558Z,71.90
2022-08-28T22:32:05.464Z,72.30
2022-08-28T22:34:41.182Z,72.60
2022-08-28T22:37:09.652Z,72.60
2022-08-28T22:39:36.640Z,72.50
2022-08-28T22:42:03.765Z,72.90
2022-08-28T22:44:31.224Z,73.20
2022-08-28T22:46:58.388Z,73.50
2022-08-28T22:49:25.784Z,73.80
2022-08-28T22:51:53.209Z,74.10
2022-08-28T22:54:20.337Z,74.40
2022-08-28T22:56:47.556Z,74.60
2022-08-28T22:59:14.633Z,75.00
2022-08-28T23:01:42.884Z,75.30
2022-08-28T23:04:11.250Z,75.40
2022-08-28T23:06:40.292Z,75.40
2022-08-28T23:09:08.615Z,75.40
2022-08-28T23:11:37.137Z,75.60
2022-08-28T23:14:05.793Z,75.50
2022-08-28T23:16:33.631Z,75.60
2022-08-28T23:19:13.321Z,75.90
2022-08-28T23:21:44.003Z,76.20
2022-08-28T23:24:13.178Z,76.30
2022-08-28T23:26:40.786Z,76.40
2022-08-28T23:29:08.404Z,76.50
2022-08-28T23:31:35.801Z,76.80
2022-08-28T23:34:03.339Z,77.00
2022-08-28T23:36:32.508Z,77.10
2022-08-28T23:39:02.806Z,77.00
2022-08-28T23:41:30.283Z,77.10
2022-08-28T23:43:57.774Z,77.60
2022-08-28T23:46:25.556Z,77.80
2022-08-28T23:48:52.811Z,78.00
2022-08-28T23:51:21.678Z,77.90
2022-08-28T23:53:48.852Z,77.80
2022-08-28T23:56:17.133Z,77.90
2022-08-28T23:58:45.106Z,78.20
